sensor_id;sensor_type;location;lat;lon;timestamp;P1;durP1;ratioP1;P2;durP2;ratioP2
61911;SDS011;49973;52.084;5.412;2022-12-04T00:01:25;41.50;;;17.77;;
61911;SDS011;49973;52.084;5.412;2022-12-04T00:03:55;51.47;;;19.63;;
61911;SDS011;49973;52.084;5.412;2022-12-04T00:06:25;48.40;;;19.13;;
61911;SDS011;49973;52.084;5.412;2022-12-04T00:08:54;40.43;;;17.60;;
61911;SDS011;49973;52.084;5.412;2022-12-04T00:11:24;47.77;;;18.70;;
61911;SDS011;49973;52.084;5.412;2022-12-04T00:13:54;49.23;;;18.33;;
61911;SDS011;49973;52.084;5.412;2022-12-04T00:16:31;42.73;;;16.87;;
61911;SDS011;49973;52.084;5.412;2022-12-04T00:19:00;42.67;;;18.80;;
61911;SDS011;49973;52.084;5.412;2022-12-04T00:21:29;49.93;;;20.30;;
61911;SDS011;49973;52.084;5.412;2022-12-04T00:23:58;46.73;;;18.20;;
61911;SDS011;49973;52.084;5.412;2022-12-04T00:26:27;45.17;;;18.60;;
61911;SDS011;49973;52.084;5.412;2022-12-04T00:28:58;44.93;;;19.37;;
61911;SDS011;49973;52.084;5.412;2022-12-04T00:31:27;40.80;;;17.83;;
61911;SDS011;49973;52.084;5.412;2022-12-04T00:33:58;40.07;;;19.47;;
61911;SDS011;49973;52.084;5.412;2022-12-04T00:36:28;49.47;;;18.97;;
61911;SDS011;49973;52.084;5.412;2022-12-04T00:38:57;50.63;;;19.07;;
61911;SDS011;49973;52.084;5.412;2022-12-04T00:41:27;51.60;;;18.33;;
61911;SDS011;49973;52.084;5.412;2022-12-04T00:43:56;45.80;;;20.53;;
61911;SDS011;49973;52.084;5.412;2022-12-04T00:46:25;51.53;;;20.90;;
61911;SDS011;49973;52.084;5.412;2022-12-04T00:48:53;50.47;;;21.10;;
61911;SDS011;49973;52.084;5.412;2022-12-04T00:51:23;54.23;;;20.50;;
61911;SDS011;49973;52.084;5.412;2022-12-04T00:53:52;51.37;;;21.53;;
61911;SDS011;49973;52.084;5.412;2022-12-04T00:56:22;55.43;;;20.47;;
61911;SDS011;49973;52.084;5.412;2022-12-04T00:58:52;48.13;;;18.40;;
61911;SDS011;49973;52.084;5.412;2022-12-04T01:01:21;45.47;;;19.27;;
61911;SDS011;49973;52.084;5.412;2022-12-04T01:03:53;45.90;;;20.03;;
61911;SDS011;49973;52.084;5.412;2022-12-04T01:06:22;47.90;;;19.17;;
61911;SDS011;49973;52.084;5.412;2022-12-04T01:08:54;43.87;;;19.13;;
61911;SDS011;49973;52.084;5.412;2022-12-04T01:11:24;49.50;;;18.87;;
61911;SDS011;49973;52.084;5.412;2022-12-04T01:13:54;41.00;;;18.23;;
61911;SDS011;49973;52.084;5.412;2022-12-04T01:16:24;45.80;;;19.33;;
61911;SDS011;49973;52.084;5.412;2022-12-04T01:18:55;48.10;;;19.57;;
61911;SDS011;49973;52.084;5.412;2022-12-04T01:21:25;48.20;;;19.17;;
61911;SDS011;49973;52.084;5.412;2022-12-04T01:23:54;41.90;;;19.10;;
61911;SDS011;49973;52.084;5.412;2022-12-04T01:26:22;45.07;;;19.80;;
61911;SDS011;49973;52.084;5.412;2022-12-04T01:28:51;51.17;;;20.17;;
61911;SDS011;49973;52.084;5.412;2022-12-04T01:31:20;50.97;;;20.50;;
61911;SDS011;49973;52.084;5.412;2022-12-04T01:33:49;50.63;;;19.97;;
61911;SDS011;49973;52.084;5.412;2022-12-04T01:36:18;47.73;;;19.13;;
61911;SDS011;49973;52.084;5.412;2022-12-04T01:38:49;46.40;;;18.83;;
61911;SDS011;49973;52.084;5.412;2022-12-04T01:41:19;45.43;;;20.57;;
61911;SDS011;49973;52.084;5.412;2022-12-04T01:44:09;56.60;;;21.60;;
61911;SDS011;49973;52.084;5.412;2022-12-04T01:46:40;46.57;;;20.50;;
61911;SDS011;49973;52.084;5.412;2022-12-04T01:49:11;44.33;;;19.10;;
61911;SDS011;49973;52.084;5.412;2022-12-04T01:51:43;50.30;;;19.63;;
61911;SDS011;49973;52.084;5.412;2022-12-04T01:54:17;42.13;;;19.33;;
61911;SDS011;49973;52.084;5.412;2022-12-04T01:56:56;53.90;;;20.67;;
61911;SDS011;49973;52.084;5.412;2022-12-04T01:59:29;43.87;;;19.53;;
61911;SDS011;49973;52.084;5.412;2022-12-04T02:02:03;50.03;;;19.87;;
61911;SDS011;49973;52.084;5.412;2022-12-04T02:04:34;49.10;;;20.67;;
61911;SDS011;49973;52.084;5.412;2022-12-04T02:07:03;55.30;;;20.50;;
61911;SDS011;49973;52.084;5.412;2022-12-04T02:09:33;47.93;;;20.07;;
61911;SDS011;49973;52.084;5.412;2022-12-04T02:12:06;45.23;;;19.37;;
61911;SDS011;49973;52.084;5.412;2022-12-04T02:14:43;44.60;;;18.90;;
61911;SDS011;49973;52.084;5.412;2022-12-04T02:17:19;43.43;;;19.67;;
61911;SDS011;49973;52.084;5.412;2022-12-04T02:19:56;42.53;;;19.97;;
61911;SDS011;49973;52.084;5.412;2022-12-04T02:22:40;49.37;;;19.40;;
61911;SDS011;49973;52.084;5.412;2022-12-04T02:25:31;39.23;;;16.83;;
61911;SDS011;49973;52.084;5.412;2022-12-04T02:28:08;44.70;;;17.87;;
61911;SDS011;49973;52.084;5.412;2022-12-04T02:30:42;48.80;;;19.53;;
61911;SDS011;49973;52.084;5.412;2022-12-04T02:33:14;44.97;;;19.20;;
61911;SDS011;49973;52.084;5.412;2022-12-04T02:35:46;45.53;;;19.60;;
61911;SDS011;49973;52.084;5.412;2022-12-04T02:38:22;43.23;;;18.17;;
61911;SDS011;49973;52.084;5.412;2022-12-04T02:40:55;47.93;;;19.57;;
61911;SDS011;49973;52.084;5.412;2022-12-04T02:43:31;48.67;;;18.90;;
61911;SDS011;49973;52.084;5.412;2022-12-04T02:46:04;50.23;;;19.57;;
61911;SDS011;49973;52.084;5.412;2022-12-04T02:48:39;49.23;;;20.37;;
61911;SDS011;49973;52.084;5.412;2022-12-04T02:51:10;51.03;;;18.97;;
61911;SDS011;49973;52.084;5.412;2022-12-04T02:53:43;45.77;;;19.77;;
61911;SDS011;49973;52.084;5.412;2022-12-04T02:56:15;45.33;;;20.03;;
61911;SDS011;49973;52.084;5.412;2022-12-04T02:58:49;52.23;;;22.10;;
61911;SDS011;49973;52.084;5.412;2022-12-04T03:01:22;47.10;;;20.90;;
61911;SDS011;49973;52.084;5.412;2022-12-04T03:03:56;44.77;;;17.97;;
61911;SDS011;49973;52.084;5.412;2022-12-04T03:06:29;42.47;;;18.33;;
61911;SDS011;49973;52.084;5.412;2022-12-04T03:09:04;46.47;;;20.67;;
61911;SDS011;49973;52.084;5.412;2022-12-04T03:11:36;51.03;;;19.70;;
61911;SDS011;49973;52.084;5.412;2022-12-04T03:14:09;46.00;;;20.40;;
61911;SDS011;49973;52.084;5.412;2022-12-04T03:16:40;49.33;;;20.63;;
61911;SDS011;49973;52.084;5.412;2022-12-04T03:19:11;49.50;;;20.47;;
61911;SDS011;49973;52.084;5.412;2022-12-04T03:21:44;44.47;;;19.87;;
61911;SDS011;49973;52.084;5.412;2022-12-04T03:24:16;51.57;;;21.20;;
61911;SDS011;49973;52.084;5.412;2022-12-04T03:26:50;55.80;;;21.43;;
61911;SDS011;49973;52.084;5.412;2022-12-04T03:29:27;54.00;;;20.40;;
61911;SDS011;49973;52.084;5.412;2022-12-04T03:32:03;56.90;;;20.50;;
61911;SDS011;49973;52.084;5.412;2022-12-04T03:34:38;47.17;;;21.03;;
61911;SDS011;49973;52.084;5.412;2022-12-04T03:37:15;50.73;;;19.93;;
61911;SDS011;49973;52.084;5.412;2022-12-04T03:39:49;51.03;;;20.07;;
61911;SDS011;49973;52.084;5.412;2022-12-04T03:42:24;52.20;;;20.23;;
61911;SDS011;49973;52.084;5.412;2022-12-04T03:45:01;50.60;;;20.07;;
61911;SDS011;49973;52.084;5.412;2022-12-04T03:47:33;45.60;;;18.93;;
61911;SDS011;49973;52.084;5.412;2022-12-04T03:50:09;51.23;;;20.13;;
61911;SDS011;49973;52.084;5.412;2022-12-04T03:52:44;51.13;;;21.20;;
61911;SDS011;49973;52.084;5.412;2022-12-04T03:55:20;46.23;;;18.27;;
61911;SDS011;49973;52.084;5.412;2022-12-04T03:57:55;48.90;;;19.07;;
61911;SDS011;49973;52.084;5.412;2022-12-04T04:00:30;47.63;;;18.83;;
61911;SDS011;49973;52.084;5.412;2022-12-04T04:03:05;45.23;;;19.43;;
61911;SDS011;49973;52.084;5.412;2022-12-04T04:05:37;49.90;;;20.30;;
61911;SDS011;49973;52.084;5.412;2022-12-04T04:08:12;48.63;;;19.73;;
61911;SDS011;49973;52.084;5.412;2022-12-04T04:10:53;41.77;;;18.50;;
61911;SDS011;49973;52.084;5.412;2022-12-04T04:13:27;52.93;;;21.57;;
61911;SDS011;49973;52.084;5.412;2022-12-04T04:16:21;42.57;;;19.00;;
61911;SDS011;49973;52.084;5.412;2022-12-04T04:19:09;44.53;;;18.07;;
61911;SDS011;49973;52.084;5.412;2022-12-04T04:21:58;41.90;;;20.07;;
61911;SDS011;49973;52.084;5.412;2022-12-04T04:24:46;51.63;;;19.70;;
61911;SDS011;49973;52.084;5.412;2022-12-04T04:27:18;51.13;;;21.27;;
61911;SDS011;49973;52.084;5.412;2022-12-04T04:29:46;52.43;;;21.20;;
61911;SDS011;49973;52.084;5.412;2022-12-04T04:32:21;45.93;;;19.43;;
61911;SDS011;49973;52.084;5.412;2022-12-04T04:34:56;40.73;;;19.07;;
61911;SDS011;49973;52.084;5.412;2022-12-04T04:37:32;42.83;;;19.27;;
61911;SDS011;49973;52.084;5.412;2022-12-04T04:40:08;46.63;;;21.23;;
61911;SDS011;49973;52.084;5.412;2022-12-04T04:42:44;45.97;;;19.43;;
61911;SDS011;49973;52.084;5.412;2022-12-04T04:45:19;43.87;;;20.33;;
61911;SDS011;49973;52.084;5.412;2022-12-04T04:47:53;49.40;;;20.93;;
61911;SDS011;49973;52.084;5.412;2022-12-04T04:50:26;57.23;;;21.37;;
61911;SDS011;49973;52.084;5.412;2022-12-04T04:52:57;46.57;;;21.27;;
61911;SDS011;49973;52.084;5.412;2022-12-04T04:55:29;46.10;;;19.73;;
61911;SDS011;49973;52.084;5.412;2022-12-04T04:58:07;51.57;;;22.03;;
61911;SDS011;49973;52.084;5.412;2022-12-04T05:00:36;49.13;;;20.60;;
61911;SDS011;49973;52.084;5.412;2022-12-04T05:03:08;53.63;;;21.57;;
61911;SDS011;49973;52.084;5.412;2022-12-04T05:05:37;48.87;;;21.60;;
61911;SDS011;49973;52.084;5.412;2022-12-04T05:08:05;53.23;;;21.47;;
61911;SDS011;49973;52.084;5.412;2022-12-04T05:10:34;48.77;;;20.40;;
61911;SDS011;49973;52.084;5.412;2022-12-04T05:13:02;47.97;;;20.37;;
61911;SDS011;49973;52.084;5.412;2022-12-04T05:15:31;56.27;;;21.43;;
61911;SDS011;49973;52.084;5.412;2022-12-04T05:17:59;56.80;;;22.23;;
61911;SDS011;49973;52.084;5.412;2022-12-04T05:20:29;46.23;;;20.10;;
61911;SDS011;49973;52.084;5.412;2022-12-04T05:22:57;52.40;;;21.83;;
61911;SDS011;49973;52.084;5.412;2022-12-04T05:25:25;51.20;;;21.20;;
61911;SDS011;49973;52.084;5.412;2022-12-04T05:27:54;50.57;;;21.03;;
61911;SDS011;49973;52.084;5.412;2022-12-04T05:30:22;54.57;;;21.70;;
61911;SDS011;49973;52.084;5.412;2022-12-04T05:32:51;46.53;;;20.10;;
61911;SDS011;49973;52.084;5.412;2022-12-04T05:35:19;50.37;;;20.63;;
61911;SDS011;49973;52.084;5.412;2022-12-04T05:37:49;45.93;;;19.80;;
61911;SDS011;49973;52.084;5.412;2022-12-04T05:40:17;49.27;;;20.57;;
61911;SDS011;49973;52.084;5.412;2022-12-04T05:42:46;49.47;;;20.50;;
61911;SDS011;49973;52.084;5.412;2022-12-04T05:45:14;56.33;;;21.17;;
61911;SDS011;49973;52.084;5.412;2022-12-04T05:47:43;58.37;;;21.17;;
61911;SDS011;49973;52.084;5.412;2022-12-04T05:50:12;53.83;;;20.53;;
61911;SDS011;49973;52.084;5.412;2022-12-04T05:52:41;47.53;;;20.20;;
61911;SDS011;49973;52.084;5.412;2022-12-04T05:55:11;43.53;;;18.50;;
61911;SDS011;49973;52.084;5.412;2022-12-04T05:57:39;51.43;;;20.83;;
61911;SDS011;49973;52.084;5.412;2022-12-04T06:00:08;49.23;;;20.90;;
61911;SDS011;49973;52.084;5.412;2022-12-04T06:02:37;50.87;;;23.03;;
61911;SDS011;49973;52.084;5.412;2022-12-04T06:05:06;53.70;;;21.73;;
61911;SDS011;49973;52.084;5.412;2022-12-04T06:07:35;50.23;;;20.17;;
61911;SDS011;49973;52.084;5.412;2022-12-04T06:10:04;52.00;;;22.07;;
61911;SDS011;49973;52.084;5.412;2022-12-04T06:12:35;46.77;;;20.53;;
61911;SDS011;49973;52.084;5.412;2022-12-04T06:15:03;48.17;;;20.23;;
61911;SDS011;49973;52.084;5.412;2022-12-04T06:17:32;47.57;;;18.43;;
61911;SDS011;49973;52.084;5.412;2022-12-04T06:20:01;47.90;;;18.53;;
61911;SDS011;49973;52.084;5.412;2022-12-04T06:22:37;51.30;;;21.30;;
61911;SDS011;49973;52.084;5.412;2022-12-04T06:25:06;67.00;;;23.43;;
61911;SDS011;49973;52.084;5.412;2022-12-04T06:27:36;48.40;;;20.53;;
61911;SDS011;49973;52.084;5.412;2022-12-04T06:30:05;51.53;;;19.53;;
61911;SDS011;49973;52.084;5.412;2022-12-04T06:32:34;50.50;;;21.90;;
61911;SDS011;49973;52.084;5.412;2022-12-04T06:35:03;42.70;;;19.00;;
61911;SDS011;49973;52.084;5.412;2022-12-04T06:37:32;45.47;;;16.17;;
61911;SDS011;49973;52.084;5.412;2022-12-04T06:40:02;46.23;;;19.87;;
61911;SDS011;49973;52.084;5.412;2022-12-04T06:42:31;53.37;;;21.23;;
61911;SDS011;49973;52.084;5.412;2022-12-04T06:45:00;46.83;;;19.70;;
61911;SDS011;49973;52.084;5.412;2022-12-04T06:47:29;43.17;;;18.50;;
61911;SDS011;49973;52.084;5.412;2022-12-04T06:49:57;53.73;;;20.57;;
61911;SDS011;49973;52.084;5.412;2022-12-04T06:52:26;42.33;;;17.57;;
61911;SDS011;49973;52.084;5.412;2022-12-04T06:54:54;45.80;;;20.67;;
61911;SDS011;49973;52.084;5.412;2022-12-04T06:57:23;43.80;;;19.30;;
61911;SDS011;49973;52.084;5.412;2022-12-04T06:59:51;46.17;;;19.40;;
61911;SDS011;49973;52.084;5.412;2022-12-04T07:02:21;50.47;;;20.93;;
61911;SDS011;49973;52.084;5.412;2022-12-04T07:04:52;43.87;;;19.40;;
61911;SDS011;49973;52.084;5.412;2022-12-04T07:07:22;50.23;;;19.07;;
61911;SDS011;49973;52.084;5.412;2022-12-04T07:09:50;40.30;;;18.20;;
61911;SDS011;49973;52.084;5.412;2022-12-04T07:12:19;42.23;;;17.00;;
61911;SDS011;49973;52.084;5.412;2022-12-04T07:14:48;45.77;;;19.40;;
61911;SDS011;49973;52.084;5.412;2022-12-04T07:17:16;47.53;;;20.67;;
61911;SDS011;49973;52.084;5.412;2022-12-04T07:19:48;37.90;;;18.20;;
61911;SDS011;49973;52.084;5.412;2022-12-04T07:22:20;46.63;;;19.93;;
61911;SDS011;49973;52.084;5.412;2022-12-04T07:24:48;48.10;;;20.53;;
61911;SDS011;49973;52.084;5.412;2022-12-04T07:27:17;52.97;;;20.90;;
61911;SDS011;49973;52.084;5.412;2022-12-04T07:29:45;44.87;;;18.00;;
61911;SDS011;49973;52.084;5.412;2022-12-04T07:32:14;45.60;;;19.50;;
61911;SDS011;49973;52.084;5.412;2022-12-04T07:34:42;50.17;;;20.70;;
61911;SDS011;49973;52.084;5.412;2022-12-04T07:37:12;38.27;;;18.57;;
61911;SDS011;49973;52.084;5.412;2022-12-04T07:39:41;47.70;;;20.83;;
61911;SDS011;49973;52.084;5.412;2022-12-04T07:42:09;42.20;;;19.30;;
61911;SDS011;49973;52.084;5.412;2022-12-04T07:44:38;47.10;;;20.00;;
61911;SDS011;49973;52.084;5.412;2022-12-04T07:47:06;47.43;;;20.17;;
61911;SDS011;49973;52.084;5.412;2022-12-04T07:49:35;45.47;;;21.53;;
61911;SDS011;49973;52.084;5.412;2022-12-04T07:52:04;43.50;;;18.83;;
61911;SDS011;49973;52.084;5.412;2022-12-04T07:54:35;47.07;;;18.37;;
61911;SDS011;49973;52.084;5.412;2022-12-04T07:57:03;45.83;;;18.70;;
61911;SDS011;49973;52.084;5.412;2022-12-04T07:59:32;41.87;;;19.47;;
61911;SDS011;49973;52.084;5.412;2022-12-04T08:02:00;40.40;;;17.83;;
61911;SDS011;49973;52.084;5.412;2022-12-04T08:04:28;47.73;;;19.83;;
61911;SDS011;49973;52.084;5.412;2022-12-04T08:06:57;45.43;;;19.53;;
61911;SDS011;49973;52.084;5.412;2022-12-04T08:09:25;49.37;;;19.27;;
61911;SDS011;49973;52.084;5.412;2022-12-04T08:11:55;46.87;;;19.60;;
61911;SDS011;49973;52.084;5.412;2022-12-04T08:14:24;51.60;;;18.73;;
61911;SDS011;49973;52.084;5.412;2022-12-04T08:16:52;46.70;;;18.93;;
61911;SDS011;49973;52.084;5.412;2022-12-04T08:19:21;37.70;;;18.10;;
61911;SDS011;49973;52.084;5.412;2022-12-04T08:21:49;44.30;;;19.17;;
61911;SDS011;49973;52.084;5.412;2022-12-04T08:24:20;45.50;;;19.70;;
61911;SDS011;49973;52.084;5.412;2022-12-04T08:26:48;47.17;;;19.87;;
61911;SDS011;49973;52.084;5.412;2022-12-04T08:29:18;43.00;;;20.03;;
61911;SDS011;49973;52.084;5.412;2022-12-04T08:31:47;45.70;;;19.20;;
61911;SDS011;49973;52.084;5.412;2022-12-04T08:34:15;39.20;;;18.97;;
61911;SDS011;49973;52.084;5.412;2022-12-04T08:36:44;49.57;;;19.50;;
61911;SDS011;49973;52.084;5.412;2022-12-04T08:39:12;46.03;;;19.43;;
61911;SDS011;49973;52.084;5.412;2022-12-04T08:41:41;47.30;;;19.30;;
61911;SDS011;49973;52.084;5.412;2022-12-04T08:44:09;48.63;;;19.33;;
61911;SDS011;49973;52.084;5.412;2022-12-04T08:46:39;47.33;;;18.80;;
61911;SDS011;49973;52.084;5.412;2022-12-04T08:49:08;47.20;;;18.57;;
61911;SDS011;49973;52.084;5.412;2022-12-04T08:51:36;47.23;;;19.23;;
61911;SDS011;49973;52.084;5.412;2022-12-04T08:54:06;48.03;;;18.27;;
61911;SDS011;49973;52.084;5.412;2022-12-04T08:56:35;44.23;;;19.20;;
61911;SDS011;49973;52.084;5.412;2022-12-04T08:59:04;43.77;;;19.50;;
61911;SDS011;49973;52.084;5.412;2022-12-04T09:01:33;50.43;;;19.50;;
61911;SDS011;49973;52.084;5.412;2022-12-04T09:04:03;40.83;;;17.07;;
61911;SDS011;49973;52.084;5.412;2022-12-04T09:06:32;47.77;;;18.37;;
61911;SDS011;49973;52.084;5.412;2022-12-04T09:09:00;40.20;;;17.70;;
61911;SDS011;49973;52.084;5.412;2022-12-04T09:11:29;41.37;;;17.03;;
61911;SDS011;49973;52.084;5.412;2022-12-04T09:13:59;41.83;;;17.43;;
61911;SDS011;49973;52.084;5.412;2022-12-04T09:16:28;40.53;;;17.73;;
61911;SDS011;49973;52.084;5.412;2022-12-04T09:18:57;41.37;;;17.87;;
61911;SDS011;49973;52.084;5.412;2022-12-04T09:21:26;39.43;;;16.40;;
61911;SDS011;49973;52.084;5.412;2022-12-04T09:23:55;39.43;;;17.67;;
61911;SDS011;49973;52.084;5.412;2022-12-04T09:26:27;48.00;;;18.80;;
61911;SDS011;49973;52.084;5.412;2022-12-04T09:28:57;39.23;;;17.30;;
61911;SDS011;49973;52.084;5.412;2022-12-04T09:31:27;43.63;;;20.40;;
61911;SDS011;49973;52.084;5.412;2022-12-04T09:33:56;53.27;;;19.53;;
61911;SDS011;49973;52.084;5.412;2022-12-04T09:36:25;43.77;;;17.53;;
61911;SDS011;49973;52.084;5.412;2022-12-04T09:38:56;39.53;;;17.53;;
61911;SDS011;49973;52.084;5.412;2022-12-04T09:41:29;44.10;;;17.47;;
61911;SDS011;49973;52.084;5.412;2022-12-04T09:44:28;44.33;;;17.30;;
61911;SDS011;49973;52.084;5.412;2022-12-04T09:47:00;42.03;;;17.80;;
61911;SDS011;49973;52.084;5.412;2022-12-04T09:49:33;45.70;;;18.90;;
61911;SDS011;49973;52.084;5.412;2022-12-04T09:52:07;46.40;;;16.70;;
61911;SDS011;49973;52.084;5.412;2022-12-04T09:54:47;42.90;;;18.67;;
61911;SDS011;49973;52.084;5.412;2022-12-04T09:57:19;37.87;;;16.77;;
61911;SDS011;49973;52.084;5.412;2022-12-04T09:59:52;43.13;;;17.37;;
61911;SDS011;49973;52.084;5.412;2022-12-04T10:02:30;45.60;;;18.53;;
61911;SDS011;49973;52.084;5.412;2022-12-04T10:05:02;40.67;;;16.53;;
61911;SDS011;49973;52.084;5.412;2022-12-04T10:07:34;38.90;;;17.40;;
61911;SDS011;49973;52.084;5.412;2022-12-04T10:10:12;41.53;;;16.27;;
61911;SDS011;49973;52.084;5.412;2022-12-04T10:12:49;42.47;;;15.83;;
61911;SDS011;49973;52.084;5.412;2022-12-04T10:15:28;38.10;;;16.17;;
61911;SDS011;49973;52.084;5.412;2022-12-04T10:21:05;37.97;;;15.33;;
61911;SDS011;49973;52.084;5.412;2022-12-04T10:23:46;39.77;;;16.13;;
61911;SDS011;49973;52.084;5.412;2022-12-04T10:26:22;34.83;;;14.67;;
61911;SDS011;49973;52.084;5.412;2022-12-04T10:28:57;35.57;;;15.17;;
61911;SDS011;49973;52.084;5.412;2022-12-04T10:31:29;29.67;;;13.50;;
61911;SDS011;49973;52.084;5.412;2022-12-04T10:34:01;34.30;;;15.60;;
61911;SDS011;49973;52.084;5.412;2022-12-04T10:36:33;28.90;;;14.43;;
61911;SDS011;49973;52.084;5.412;2022-12-04T10:39:04;31.47;;;14.17;;
61911;SDS011;49973;52.084;5.412;2022-12-04T10:41:37;30.10;;;13.37;;
61911;SDS011;49973;52.084;5.412;2022-12-04T10:44:13;30.77;;;12.77;;
61911;SDS011;49973;52.084;5.412;2022-12-04T10:46:43;29.50;;;12.63;;
61911;SDS011;49973;52.084;5.412;2022-12-04T10:49:15;31.63;;;11.43;;
61911;SDS011;49973;52.084;5.412;2022-12-04T10:51:46;30.20;;;13.30;;
61911;SDS011;49973;52.084;5.412;2022-12-04T10:54:19;29.10;;;11.37;;
61911;SDS011;49973;52.084;5.412;2022-12-04T10:56:50;25.77;;;10.73;;
61911;SDS011;49973;52.084;5.412;2022-12-04T10:59:20;28.27;;;11.93;;
61911;SDS011;49973;52.084;5.412;2022-12-04T11:01:49;25.00;;;12.03;;
61911;SDS011;49973;52.084;5.412;2022-12-04T11:04:20;28.33;;;11.27;;
61911;SDS011;49973;52.084;5.412;2022-12-04T11:06:51;29.23;;;12.07;;
61911;SDS011;49973;52.084;5.412;2022-12-04T11:09:29;21.10;;;10.57;;
61911;SDS011;49973;52.084;5.412;2022-12-04T11:12:06;24.17;;;10.30;;
61911;SDS011;49973;52.084;5.412;2022-12-04T11:14:43;26.07;;;11.90;;
61911;SDS011;49973;52.084;5.412;2022-12-04T11:17:14;28.30;;;12.00;;
61911;SDS011;49973;52.084;5.412;2022-12-04T11:19:44;22.77;;;11.33;;
61911;SDS011;49973;52.084;5.412;2022-12-04T11:22:13;25.97;;;11.57;;
61911;SDS011;49973;52.084;5.412;2022-12-04T11:24:49;22.77;;;9.53;;
61911;SDS011;49973;52.084;5.412;2022-12-04T11:27:22;22.50;;;10.47;;
61911;SDS011;49973;52.084;5.412;2022-12-04T11:29:57;25.67;;;10.23;;
61911;SDS011;49973;52.084;5.412;2022-12-04T11:32:30;23.20;;;10.60;;
61911;SDS011;49973;52.084;5.412;2022-12-04T11:35:04;21.23;;;11.00;;
61911;SDS011;49973;52.084;5.412;2022-12-04T11:37:41;23.97;;;11.23;;
61911;SDS011;49973;52.084;5.412;2022-12-04T11:40:21;25.67;;;11.03;;
61911;SDS011;49973;52.084;5.412;2022-12-04T11:43:02;23.93;;;11.13;;
61911;SDS011;49973;52.084;5.412;2022-12-04T11:45:32;22.60;;;11.17;;
61911;SDS011;49973;52.084;5.412;2022-12-04T11:48:01;20.70;;;10.60;;
61911;SDS011;49973;52.084;5.412;2022-12-04T11:50:36;25.87;;;11.60;;
61911;SDS011;49973;52.084;5.412;2022-12-04T11:53:13;19.20;;;9.93;;
61911;SDS011;49973;52.084;5.412;2022-12-04T11:55:49;24.70;;;9.10;;
61911;SDS011;49973;52.084;5.412;2022-12-04T11:58:39;18.10;;;10.03;;
61911;SDS011;49973;52.084;5.412;2022-12-04T12:01:17;20.00;;;9.03;;
61911;SDS011;49973;52.084;5.412;2022-12-04T12:04:00;27.00;;;9.37;;
61911;SDS011;49973;52.084;5.412;2022-12-04T12:06:49;19.43;;;9.80;;
61911;SDS011;49973;52.084;5.412;2022-12-04T12:09:31;20.47;;;9.33;;
61911;SDS011;49973;52.084;5.412;2022-12-04T12:12:07;18.83;;;9.80;;
61911;SDS011;49973;52.084;5.412;2022-12-04T12:14:40;23.43;;;9.60;;
61911;SDS011;49973;52.084;5.412;2022-12-04T12:17:15;18.73;;;8.27;;
61911;SDS011;49973;52.084;5.412;2022-12-04T12:19:56;24.43;;;9.70;;
61911;SDS011;49973;52.084;5.412;2022-12-04T12:25:34;19.30;;;9.53;;
61911;SDS011;49973;52.084;5.412;2022-12-04T12:28:29;20.87;;;9.30;;
61911;SDS011;49973;52.084;5.412;2022-12-04T12:31:20;18.37;;;9.27;;
61911;SDS011;49973;52.084;5.412;2022-12-04T12:34:02;17.87;;;8.43;;
61911;SDS011;49973;52.084;5.412;2022-12-04T12:36:35;20.07;;;9.50;;
61911;SDS011;49973;52.084;5.412;2022-12-04T12:39:10;21.53;;;10.13;;
61911;SDS011;49973;52.084;5.412;2022-12-04T12:41:43;18.00;;;9.37;;
61911;SDS011;49973;52.084;5.412;2022-12-04T12:44:20;22.00;;;8.90;;
61911;SDS011;49973;52.084;5.412;2022-12-04T12:46:53;16.47;;;9.03;;
61911;SDS011;49973;52.084;5.412;2022-12-04T12:49:28;17.20;;;10.03;;
61911;SDS011;49973;52.084;5.412;2022-12-04T12:52:03;16.43;;;8.73;;
61911;SDS011;49973;52.084;5.412;2022-12-04T12:54:39;18.07;;;9.00;;
61911;SDS011;49973;52.084;5.412;2022-12-04T12:57:13;16.50;;;8.77;;
61911;SDS011;49973;52.084;5.412;2022-12-04T12:59:47;24.23;;;9.60;;
61911;SDS011;49973;52.084;5.412;2022-12-04T13:02:21;18.37;;;9.13;;
61911;SDS011;49973;52.084;5.412;2022-12-04T13:04:54;20.57;;;8.53;;
61911;SDS011;49973;52.084;5.412;2022-12-04T13:07:26;20.43;;;10.23;;
61911;SDS011;49973;52.084;5.412;2022-12-04T13:10:00;23.27;;;10.43;;
61911;SDS011;49973;52.084;5.412;2022-12-04T13:12:34;16.77;;;8.10;;
61911;SDS011;49973;52.084;5.412;2022-12-04T13:15:14;18.97;;;8.93;;
61911;SDS011;49973;52.084;5.412;2022-12-04T13:17:44;17.30;;;9.37;;
61911;SDS011;49973;52.084;5.412;2022-12-04T13:20:16;20.40;;;8.43;;
61911;SDS011;49973;52.084;5.412;2022-12-04T13:22:50;16.77;;;7.90;;
61911;SDS011;49973;52.084;5.412;2022-12-04T13:25:35;19.57;;;8.70;;
61911;SDS011;49973;52.084;5.412;2022-12-04T13:28:16;14.70;;;8.87;;
61911;SDS011;49973;52.084;5.412;2022-12-04T13:30:58;20.87;;;9.13;;
61911;SDS011;49973;52.084;5.412;2022-12-04T13:33:39;16.80;;;9.27;;
61911;SDS011;49973;52.084;5.412;2022-12-04T13:36:37;21.33;;;9.40;;
61911;SDS011;49973;52.084;5.412;2022-12-04T13:39:32;16.63;;;8.57;;
61911;SDS011;49973;52.084;5.412;2022-12-04T13:42:19;19.00;;;8.57;;
61911;SDS011;49973;52.084;5.412;2022-12-04T13:44:53;19.50;;;9.17;;
61911;SDS011;49973;52.084;5.412;2022-12-04T13:47:26;14.00;;;8.53;;
61911;SDS011;49973;52.084;5.412;2022-12-04T13:50:06;21.90;;;9.37;;
61911;SDS011;49973;52.084;5.412;2022-12-04T13:52:51;17.93;;;10.10;;
61911;SDS011;49973;52.084;5.412;2022-12-04T13:55:24;21.03;;;9.40;;
61911;SDS011;49973;52.084;5.412;2022-12-04T13:57:56;18.43;;;9.33;;
61911;SDS011;49973;52.084;5.412;2022-12-04T14:00:27;21.13;;;9.17;;
61911;SDS011;49973;52.084;5.412;2022-12-04T14:03:01;20.93;;;9.80;;
61911;SDS011;49973;52.084;5.412;2022-12-04T14:05:32;19.13;;;9.83;;
61911;SDS011;49973;52.084;5.412;2022-12-04T14:08:17;20.97;;;10.70;;
61911;SDS011;49973;52.084;5.412;2022-12-04T14:10:56;19.47;;;9.13;;
61911;SDS011;49973;52.084;5.412;2022-12-04T14:13:28;22.30;;;8.77;;
61911;SDS011;49973;52.084;5.412;2022-12-04T14:16:03;20.27;;;9.70;;
61911;SDS011;49973;52.084;5.412;2022-12-04T14:18:37;20.30;;;10.03;;
61911;SDS011;49973;52.084;5.412;2022-12-04T14:21:05;21.57;;;10.43;;
61911;SDS011;49973;52.084;5.412;2022-12-04T14:23:35;21.93;;;11.27;;
61911;SDS011;49973;52.084;5.412;2022-12-04T14:26:16;17.90;;;9.67;;
61911;SDS011;49973;52.084;5.412;2022-12-04T14:28:47;24.87;;;10.47;;
61911;SDS011;49973;52.084;5.412;2022-12-04T14:31:21;25.53;;;10.70;;
61911;SDS011;49973;52.084;5.412;2022-12-04T14:33:58;23.60;;;11.80;;
61911;SDS011;49973;52.084;5.412;2022-12-04T14:36:32;25.70;;;12.00;;
61911;SDS011;49973;52.084;5.412;2022-12-04T14:39:09;24.80;;;11.67;;
61911;SDS011;49973;52.084;5.412;2022-12-04T14:41:41;21.93;;;11.20;;
61911;SDS011;49973;52.084;5.412;2022-12-04T14:44:14;27.47;;;12.10;;
61911;SDS011;49973;52.084;5.412;2022-12-04T14:46:52;24.23;;;11.00;;
61911;SDS011;49973;52.084;5.412;2022-12-04T14:49:29;25.70;;;11.43;;
61911;SDS011;49973;52.084;5.412;2022-12-04T14:52:06;29.63;;;12.37;;
61911;SDS011;49973;52.084;5.412;2022-12-04T14:54:42;28.17;;;12.20;;
61911;SDS011;49973;52.084;5.412;2022-12-04T14:57:29;25.37;;;12.57;;
61911;SDS011;49973;52.084;5.412;2022-12-04T15:00:12;31.90;;;13.53;;
61911;SDS011;49973;52.084;5.412;2022-12-04T15:02:43;27.73;;;12.60;;